sensor_id;sensor_type;location;lat;lon;timestamp;pressure;altitude;pressure_sealevel;temperature;humidity
48200;BME280;33990;44.602;10.976;2023-02-04T00:01:58;101525.47;;;19.18;40.56
48200;BME280;33990;44.602;10.976;2023-02-04T00:04:25;101528.16;;;19.18;40.54
48200;BME280;33990;44.602;10.976;2023-02-04T00:06:52;101516.56;;;19.18;40.67
48200;BME280;33990;44.602;10.976;2023-02-04T00:09:20;101519.25;;;19.18;40.85
48200;BME280;33990;44.602;10.976;2023-02-04T00:11:47;101517.44;;;19.18;40.84
48200;BME280;33990;44.602;10.976;2023-02-04T00:14:14;101527.31;;;19.18;40.73
48200;BME280;33990;44.602;10.976;2023-02-04T00:16:41;101528.16;;;19.18;40.70
48200;BME280;33990;44.602;10.976;2023-02-04T00:19:09;101522.81;;;19.18;40.80
48200;BME280;33990;44.602;10.976;2023-02-04T00:21:36;101521.94;;;19.18;40.50
48200;BME280;33990;44.602;10.976;2023-02-04T00:24:04;101511.22;;;19.18;40.57
48200;BME280;33990;44.602;10.976;2023-02-04T00:26:31;101514.75;;;19.18;40.56
48200;BME280;33990;44.602;10.976;2023-02-04T00:28:58;101519.25;;;19.18;40.54
48200;BME280;33990;44.602;10.976;2023-02-04T00:31:26;101500.47;;;19.18;40.52
48200;BME280;33990;44.602;10.976;2023-02-04T00:33:53;101489.75;;;19.18;40.53
48200;BME280;33990;44.602;10.976;2023-02-04T00:36:20;101498.66;;;19.18;40.63
48200;BME280;33990;44.602;10.976;2023-02-04T00:38:47;101481.81;;;19.16;40.45
48200;BME280;33990;44.602;10.976;2023-02-04T00:41:15;101479.97;;;19.17;40.63
48200;BME280;33990;44.602;10.976;2023-02-04T00:43:42;101464.72;;;19.17;40.48
48200;BME280;33990;44.602;10.976;2023-02-04T00:46:09;101465.72;;;19.16;40.51
48200;BME280;33990;44.602;10.976;2023-02-04T00:48:37;101478.25;;;19.16;40.50
48200;BME280;33990;44.602;10.976;2023-02-04T00:51:04;101471.94;;;19.17;40.63
48200;BME280;33990;44.602;10.976;2023-02-04T00:53:32;101472.88;;;19.16;40.59
48200;BME280;33990;44.602;10.976;2023-02-04T00:55:59;101472.03;;;19.15;40.65
48200;BME280;33990;44.602;10.976;2023-02-04T00:58:26;101466.66;;;19.15;40.46
48200;BME280;33990;44.602;10.976;2023-02-04T01:00:55;101457.66;;;19.16;40.44
48200;BME280;33990;44.602;10.976;2023-02-04T01:03:22;101465.72;;;19.16;40.58
48200;BME280;33990;44.602;10.976;2023-02-04T01:05:49;101469.25;;;19.17;40.46
48200;BME280;33990;44.602;10.976;2023-02-04T01:08:17;101463.88;;;19.17;40.76
48200;BME280;33990;44.602;10.976;2023-02-04T01:10:44;101462.13;;;19.16;40.51
48200;BME280;33990;44.602;10.976;2023-02-04T01:13:11;101456.69;;;19.17;40.57
48200;BME280;33990;44.602;10.976;2023-02-04T01:15:39;101453.25;;;19.15;40.57
48200;BME280;33990;44.602;10.976;2023-02-04T01:18:06;101454.97;;;19.16;40.40
48200;BME280;33990;44.602;10.976;2023-02-04T01:20:34;101453.25;;;19.15;40.31
48200;BME280;33990;44.602;10.976;2023-02-04T01:23:01;101451.41;;;19.16;40.51
48200;BME280;33990;44.602;10.976;2023-02-04T01:25:29;101454.22;;;19.14;40.40
48200;BME280;33990;44.602;10.976;2023-02-04T01:27:58;101451.41;;;19.16;40.56
48200;BME280;33990;44.602;10.976;2023-02-04T01:30:26;101445.19;;;19.15;40.48
48200;BME280;33990;44.602;10.976;2023-02-04T01:32:55;101452.28;;;19.16;40.39
48200;BME280;33990;44.602;10.976;2023-02-04T01:35:22;101439.81;;;19.15;40.38
48200;BME280;33990;44.602;10.976;2023-02-04T01:37:51;101451.41;;;19.16;40.59
48200;BME280;33990;44.602;10.976;2023-02-04T01:40:18;101439.94;;;19.14;40.38
48200;BME280;33990;44.602;10.976;2023-02-04T01:42:46;101436.28;;;19.15;40.44
48200;BME280;33990;44.602;10.976;2023-02-04T01:45:13;101435.44;;;19.14;40.36
48200;BME280;33990;44.602;10.976;2023-02-04T01:47:41;101448.84;;;19.14;40.58
48200;BME280;33990;44.602;10.976;2023-02-04T01:50:12;101431.91;;;19.14;40.49
48200;BME280;33990;44.602;10.976;2023-02-04T01:52:43;101441.66;;;19.15;40.52
48200;BME280;33990;44.602;10.976;2023-02-04T01:55:16;101446.16;;;19.14;40.48
48200;BME280;33990;44.602;10.976;2023-02-04T01:57:44;101432.88;;;19.13;40.62
48200;BME280;33990;44.602;10.976;2023-02-04T02:00:16;101431.91;;;19.14;40.50
48200;BME280;33990;44.602;10.976;2023-02-04T02:02:51;101442.63;;;19.14;40.49
48200;BME280;33990;44.602;10.976;2023-02-04T02:05:22;101445.31;;;19.14;40.52
48200;BME280;33990;44.602;10.976;2023-02-04T02:07:52;101429.22;;;19.14;40.51
48200;BME280;33990;44.602;10.976;2023-02-04T02:10:20;101430.19;;;19.13;40.49
48200;BME280;33990;44.602;10.976;2023-02-04T02:12:48;101432.88;;;19.13;40.54
48200;BME280;33990;44.602;10.976;2023-02-04T02:15:16;101435.56;;;19.13;40.52
48200;BME280;33990;44.602;10.976;2023-02-04T02:17:45;101424.81;;;19.13;40.40
48200;BME280;33990;44.602;10.976;2023-02-04T02:20:15;101423.97;;;19.12;40.40
48200;BME280;33990;44.602;10.976;2023-02-04T02:23:02;101426.66;;;19.12;40.38
48200;BME280;33990;44.602;10.976;2023-02-04T02:25:31;101416.88;;;19.11;40.38
48200;BME280;33990;44.602;10.976;2023-02-04T02:27:59;101408.81;;;19.11;40.37
48200;BME280;33990;44.602;10.976;2023-02-04T02:30:27;101405.28;;;19.11;40.44
48200;BME280;33990;44.602;10.976;2023-02-04T02:32:56;101417.72;;;19.12;40.40
48200;BME280;33990;44.602;10.976;2023-02-04T02:35:24;101416.00;;;19.11;40.40
48200;BME280;33990;44.602;10.976;2023-02-04T02:37:51;101419.56;;;19.11;40.45
48200;BME280;33990;44.602;10.976;2023-02-04T02:40:18;101421.38;;;19.11;40.34
48200;BME280;33990;44.602;10.976;2023-02-04T02:42:49;101422.22;;;19.11;40.13
48200;BME280;33990;44.602;10.976;2023-02-04T02:45:26;101417.84;;;19.10;40.35
48200;BME280;33990;44.602;10.976;2023-02-04T02:47:56;101417.84;;;19.10;40.49
48200;BME280;33990;44.602;10.976;2023-02-04T02:50:26;101407.13;;;19.10;40.35
48200;BME280;33990;44.602;10.976;2023-02-04T02:52:56;101413.34;;;19.11;40.38
48200;BME280;33990;44.602;10.976;2023-02-04T02:55:26;101408.81;;;19.11;40.39
48200;BME280;33990;44.602;10.976;2023-02-04T02:57:56;101424.06;;;19.11;40.39
48200;BME280;33990;44.602;10.976;2023-02-04T03:00:28;101420.53;;;19.10;40.28
48200;BME280;33990;44.602;10.976;2023-02-04T03:02:59;101416.16;;;19.09;40.51
48200;BME280;33990;44.602;10.976;2023-02-04T03:05:29;101402.72;;;19.09;40.44
48200;BME280;33990;44.602;10.976;2023-02-04T03:07:59;101389.31;;;19.09;40.43
48200;BME280;33990;44.602;10.976;2023-02-04T03:10:26;101383.94;;;19.09;40.66
48200;BME280;33990;44.602;10.976;2023-02-04T03:12:54;101393.69;;;19.10;40.60
48200;BME280;33990;44.602;10.976;2023-02-04T03:15:22;101395.66;;;19.08;40.40
48200;BME280;33990;44.602;10.976;2023-02-04T03:17:49;101409.94;;;19.09;40.53
48200;BME280;33990;44.602;10.976;2023-02-04T03:20:26;101397.44;;;19.08;40.75
48200;BME280;33990;44.602;10.976;2023-02-04T03:22:55;101406.38;;;19.08;40.69
48200;BME280;33990;44.602;10.976;2023-02-04T03:25:24;101404.56;;;19.09;40.54
48200;BME280;33990;44.602;10.976;2023-02-04T03:27:53;101391.25;;;19.07;40.64
48200;BME280;33990;44.602;10.976;2023-02-04T03:30:21;101410.03;;;19.07;40.69
48200;BME280;33990;44.602;10.976;2023-02-04T03:32:48;101399.28;;;19.07;40.78
48200;BME280;33990;44.602;10.976;2023-02-04T03:35:16;101420.88;;;19.06;40.76
48200;BME280;33990;44.602;10.976;2023-02-04T03:37:44;101418.06;;;19.07;40.69
48200;BME280;33990;44.602;10.976;2023-02-04T03:40:11;101414.53;;;19.07;40.70
48200;BME280;33990;44.602;10.976;2023-02-04T03:42:39;101402.09;;;19.06;40.63
48200;BME280;33990;44.602;10.976;2023-02-04T03:45:07;101410.03;;;19.07;40.41
48200;BME280;33990;44.602;10.976;2023-02-04T03:47:34;101402.09;;;19.06;40.52
48200;BME280;33990;44.602;10.976;2023-02-04T03:50:02;101413.81;;;19.05;40.67
48200;BME280;33990;44.602;10.976;2023-02-04T03:52:29;101407.47;;;19.06;40.53
48200;BME280;33990;44.602;10.976;2023-02-04T03:54:57;101411.13;;;19.05;40.56
48200;BME280;33990;44.602;10.976;2023-02-04T03:57:24;101394.91;;;19.06;40.65
48200;BME280;33990;44.602;10.976;2023-02-04T03:59:51;101397.59;;;19.06;40.73
48200;BME280;33990;44.602;10.976;2023-02-04T04:02:19;101396.72;;;19.06;40.57
48200;BME280;33990;44.602;10.976;2023-02-04T04:04:46;101397.59;;;19.06;40.78
48200;BME280;33990;44.602;10.976;2023-02-04T04:07:13;101404.91;;;19.04;40.61
48200;BME280;33990;44.602;10.976;2023-02-04T04:09:40;101390.50;;;19.05;40.64
48200;BME280;33990;44.602;10.976;2023-02-04T04:12:08;101387.81;;;19.05;40.60
48200;BME280;33990;44.602;10.976;2023-02-04T04:14:35;101377.09;;;19.05;40.48
48200;BME280;33990;44.602;10.976;2023-02-04T04:17:03;101382.47;;;19.05;40.76
48200;BME280;33990;44.602;10.976;2023-02-04T04:19:30;101373.56;;;19.05;40.78
48200;BME280;33990;44.602;10.976;2023-02-04T04:21:58;101378.06;;;19.04;40.69
48200;BME280;33990;44.602;10.976;2023-02-04T04:24:25;101388.81;;;19.04;40.68
48200;BME280;33990;44.602;10.976;2023-02-04T04:26:53;101376.34;;;19.03;40.79
48200;BME280;33990;44.602;10.976;2023-02-04T04:29:20;101386.13;;;19.04;40.82
48200;BME280;33990;44.602;10.976;2023-02-04T04:31:47;101377.19;;;19.03;40.75
48200;BME280;33990;44.602;10.976;2023-02-04T04:34:15;101371.81;;;19.03;41.10
48200;BME280;33990;44.602;10.976;2023-02-04T04:36:42;101365.59;;;19.03;40.90
48200;BME280;33990;44.602;10.976;2023-02-04T04:39:09;101365.59;;;19.03;40.88
48200;BME280;33990;44.602;10.976;2023-02-04T04:41:37;101380.84;;;19.02;40.78
48200;BME280;33990;44.602;10.976;2023-02-04T04:44:04;101358.41;;;19.03;40.80
48200;BME280;33990;44.602;10.976;2023-02-04T04:46:32;101359.38;;;19.02;40.84
48200;BME280;33990;44.602;10.976;2023-02-04T04:48:59;101367.44;;;19.02;40.88
48200;BME280;33990;44.602;10.976;2023-02-04T04:51:26;101370.25;;;19.01;41.00
48200;BME280;33990;44.602;10.976;2023-02-04T04:53:58;101367.56;;;19.01;40.88
48200;BME280;33990;44.602;10.976;2023-02-04T04:56:25;101371.09;;;19.01;40.81
48200;BME280;33990;44.602;10.976;2023-02-04T04:58:53;101370.25;;;19.01;40.82
48200;BME280;33990;44.602;10.976;2023-02-04T05:01:20;101373.78;;;19.01;41.04
48200;BME280;33990;44.602;10.976;2023-02-04T05:03:48;101368.53;;;19.00;40.94
48200;BME280;33990;44.602;10.976;2023-02-04T05:06:16;101367.66;;;18.99;41.07
48200;BME280;33990;44.602;10.976;2023-02-04T05:08:43;101372.19;;;18.99;40.96
48200;BME280;33990;44.602;10.976;2023-02-04T05:11:10;101366.81;;;18.99;40.81
48200;BME280;33990;44.602;10.976;2023-02-04T05:13:37;101377.53;;;18.99;40.90
48200;BME280;33990;44.602;10.976;2023-02-04T05:16:05;101374.84;;;18.99;40.82
48200;BME280;33990;44.602;10.976;2023-02-04T05:18:32;101377.44;;;19.00;40.85
48200;BME280;33990;44.602;10.976;2023-02-04T05:20:59;101364.13;;;18.99;41.07
48200;BME280;33990;44.602;10.976;2023-02-04T05:23:27;101364.97;;;18.99;40.78
48200;BME280;33990;44.602;10.976;2023-02-04T05:25:54;101359.63;;;18.99;40.71
48200;BME280;33990;44.602;10.976;2023-02-04T05:28:21;101375.72;;;18.99;40.73
48200;BME280;33990;44.602;10.976;2023-02-04T05:30:48;101364.13;;;18.99;40.82
48200;BME280;33990;44.602;10.976;2023-02-04T05:33:16;101358.75;;;18.99;40.88
48200;BME280;33990;44.602;10.976;2023-02-04T05:35:43;101358.75;;;18.99;40.87
48200;BME280;33990;44.602;10.976;2023-02-04T05:38:10;101351.56;;;18.99;40.84
48200;BME280;33990;44.602;10.976;2023-02-04T05:40:38;101363.28;;;18.98;40.75
48200;BME280;33990;44.602;10.976;2023-02-04T05:43:06;101380.34;;;18.97;40.99
48200;BME280;33990;44.602;10.976;2023-02-04T05:45:33;101377.69;;;18.97;40.90
48200;BME280;33990;44.602;10.976;2023-02-04T05:48:00;101368.66;;;18.98;40.67
48200;BME280;33990;44.602;10.976;2023-02-04T05:50:28;101378.53;;;18.98;41.04
48200;BME280;33990;44.602;10.976;2023-02-04T05:53:07;101383.88;;;18.98;40.79
48200;BME280;33990;44.602;10.976;2023-02-04T05:55:35;101382.06;;;18.98;40.77
48200;BME280;33990;44.602;10.976;2023-02-04T05:58:02;101367.78;;;18.98;40.74
48200;BME280;33990;44.602;10.976;2023-02-04T06:00:30;101381.22;;;18.98;40.82
48200;BME280;33990;44.602;10.976;2023-02-04T06:02:57;101366.09;;;18.97;40.93
48200;BME280;33990;44.602;10.976;2023-02-04T06:05:25;101383.03;;;18.97;41.08
48200;BME280;33990;44.602;10.976;2023-02-04T06:07:52;101369.63;;;18.97;41.12
48200;BME280;33990;44.602;10.976;2023-02-04T06:10:19;101375.84;;;18.98;41.41
48200;BME280;33990;44.602;10.976;2023-02-04T06:12:47;101379.50;;;18.97;41.29
48200;BME280;33990;44.602;10.976;2023-02-04T06:15:15;101383.03;;;18.97;41.22
48200;BME280;33990;44.602;10.976;2023-02-04T06:17:42;101374.13;;;18.97;41.20
48200;BME280;33990;44.602;10.976;2023-02-04T06:20:10;101385.84;;;18.96;41.09
48200;BME280;33990;44.602;10.976;2023-02-04T06:22:39;101387.56;;;18.97;41.24
48200;BME280;33990;44.602;10.976;2023-02-04T06:25:07;101385.84;;;18.96;40.95
48200;BME280;33990;44.602;10.976;2023-02-04T06:27:34;101396.59;;;18.96;40.95
48200;BME280;33990;44.602;10.976;2023-02-04T06:30:02;101381.44;;;18.95;40.55
48200;BME280;33990;44.602;10.976;2023-02-04T06:32:29;101384.97;;;18.95;41.00
48200;BME280;33990;44.602;10.976;2023-02-04T06:34:56;101387.66;;;18.95;40.89
48200;BME280;33990;44.602;10.976;2023-02-04T06:37:24;101393.00;;;18.95;40.75
48200;BME280;33990;44.602;10.976;2023-02-04T06:39:51;101389.47;;;18.95;40.95
48200;BME280;33990;44.602;10.976;2023-02-04T06:42:20;101384.13;;;18.95;40.82
48200;BME280;33990;44.602;10.976;2023-02-04T06:44:47;101398.50;;;18.94;40.58
48200;BME280;33990;44.602;10.976;2023-02-04T06:47:15;101410.94;;;18.95;40.87
48200;BME280;33990;44.602;10.976;2023-02-04T06:49:42;101410.09;;;18.94;40.58
48200;BME280;33990;44.602;10.976;2023-02-04T06:52:09;101416.31;;;18.95;40.74
48200;BME280;33990;44.602;10.976;2023-02-04T06:54:37;101410.94;;;18.95;40.53
48200;BME280;33990;44.602;10.976;2023-02-04T06:57:04;101412.69;;;18.96;40.75
48200;BME280;33990;44.602;10.976;2023-02-04T06:59:36;101407.31;;;18.96;40.53
48200;BME280;33990;44.602;10.976;2023-02-04T07:02:05;101410.09;;;18.94;40.63
48200;BME280;33990;44.602;10.976;2023-02-04T07:04:33;101410.09;;;18.94;40.66
48200;BME280;33990;44.602;10.976;2023-02-04T07:07:01;101398.50;;;18.94;40.58
48200;BME280;33990;44.602;10.976;2023-02-04T07:09:29;101415.47;;;18.94;40.67
48200;BME280;33990;44.602;10.976;2023-02-04T07:11:56;101419.84;;;18.95;40.48
48200;BME280;33990;44.602;10.976;2023-02-04T07:14:23;101412.91;;;18.93;40.50
48200;BME280;33990;44.602;10.976;2023-02-04T07:16:50;101411.94;;;18.94;40.67
48200;BME280;33990;44.602;10.976;2023-02-04T07:19:18;101412.78;;;18.94;40.56
48200;BME280;33990;44.602;10.976;2023-02-04T07:21:47;101419.97;;;18.94;40.69
48200;BME280;33990;44.602;10.976;2023-02-04T07:24:14;101408.38;;;18.93;40.49
48200;BME280;33990;44.602;10.976;2023-02-04T07:26:41;101409.25;;;18.94;40.79
48200;BME280;33990;44.602;10.976;2023-02-04T07:29:09;101415.59;;;18.93;40.64
48200;BME280;33990;44.602;10.976;2023-02-04T07:31:46;101427.25;;;18.92;40.82
48200;BME280;33990;44.602;10.976;2023-02-04T07:34:14;101433.50;;;18.92;40.66
48200;BME280;33990;44.602;10.976;2023-02-04T07:36:42;101429.00;;;18.93;40.94
48200;BME280;33990;44.602;10.976;2023-02-04T07:39:09;101431.69;;;18.93;41.03
48200;BME280;33990;44.602;10.976;2023-02-04T07:41:36;101438.88;;;18.92;41.04
48200;BME280;33990;44.602;10.976;2023-02-04T07:44:04;101448.72;;;18.92;41.07
48200;BME280;33990;44.602;10.976;2023-02-04T07:46:31;101456.78;;;18.92;40.97
48200;BME280;33990;44.602;10.976;2023-02-04T07:48:59;101481.81;;;18.92;40.79
48200;BME280;33990;44.602;10.976;2023-02-04T07:51:26;101484.50;;;18.92;40.64
48200;BME280;33990;44.602;10.976;2023-02-04T07:53:55;101480.94;;;18.92;40.86
48200;BME280;33990;44.602;10.976;2023-02-04T07:56:22;101488.97;;;18.92;40.78
48200;BME280;33990;44.602;10.976;2023-02-04T07:58:50;101493.41;;;18.93;40.96
48200;BME280;33990;44.602;10.976;2023-02-04T08:01:17;101505.97;;;18.92;41.25
48200;BME280;33990;44.602;10.976;2023-02-04T08:03:44;101508.50;;;18.94;41.03
48200;BME280;33990;44.602;10.976;2023-02-04T08:06:11;101503.16;;;18.94;40.85
48200;BME280;33990;44.602;10.976;2023-02-04T08:08:39;101509.50;;;18.93;40.81
48200;BME280;33990;44.602;10.976;2023-02-04T08:11:06;101509.38;;;18.94;40.80
48200;BME280;33990;44.602;10.976;2023-02-04T08:13:34;101504.13;;;18.93;41.01
48200;BME280;33990;44.602;10.976;2023-02-04T08:16:01;101495.94;;;18.94;41.36
48200;BME280;33990;44.602;10.976;2023-02-04T08:18:29;101504.97;;;18.93;41.27
48200;BME280;33990;44.602;10.976;2023-02-04T08:20:59;101498.63;;;18.94;41.26
48200;BME280;33990;44.602;10.976;2023-02-04T08:23:27;101488.88;;;18.93;41.19
48200;BME280;33990;44.602;10.976;2023-02-04T08:25:55;101484.38;;;18.94;40.98
48200;BME280;33990;44.602;10.976;2023-02-04T08:28:22;101491.44;;;18.95;40.84
48200;BME280;33990;44.602;10.976;2023-02-04T08:30:50;101509.28;;;18.96;40.71
48200;BME280;33990;44.602;10.976;2023-02-04T08:33:18;101509.28;;;18.96;41.06
48200;BME280;33990;44.602;10.976;2023-02-04T08:35:45;101512.69;;;18.98;40.98
48200;BME280;33990;44.602;10.976;2023-02-04T08:38:13;101525.97;;;18.99;41.11
48200;BME280;33990;44.602;10.976;2023-02-04T08:40:42;101533.09;;;19.00;41.12
48200;BME280;33990;44.602;10.976;2023-02-04T08:43:10;101526.75;;;19.01;41.10
48200;BME280;33990;44.602;10.976;2023-02-04T08:45:37;101523.19;;;19.01;41.48
48200;BME280;33990;44.602;10.976;2023-02-04T08:48:07;101521.25;;;19.03;41.49
48200;BME280;33990;44.602;10.976;2023-02-04T08:50:35;101523.84;;;19.05;41.85
48200;BME280;33990;44.602;10.976;2023-02-04T08:53:05;101533.47;;;19.07;41.36
48200;BME280;33990;44.602;10.976;2023-02-04T08:55:32;101538.75;;;19.09;40.98
48200;BME280;33990;44.602;10.976;2023-02-04T08:57:59;101541.44;;;19.09;40.64
48200;BME280;33990;44.602;10.976;2023-02-04T09:00:28;101546.88;;;19.07;40.25
48200;BME280;33990;44.602;10.976;2023-02-04T09:02:57;101546.78;;;19.09;40.34
48200;BME280;33990;44.602;10.976;2023-02-04T09:05:26;101544.09;;;19.09;40.33
48200;BME280;33990;44.602;10.976;2023-02-04T09:07:53;101536.06;;;19.09;40.12
48200;BME280;33990;44.602;10.976;2023-02-04T09:10:20;101546.66;;;19.10;41.13
48200;BME280;33990;44.602;10.976;2023-02-04T09:12:48;101549.22;;;19.12;40.98
48200;BME280;33990;44.602;10.976;2023-02-04T09:15:15;101546.31;;;19.15;41.34
48200;BME280;33990;44.602;10.976;2023-02-04T09:17:43;101539.03;;;19.17;41.12
48200;BME280;33990;44.602;10.976;2023-02-04T09:20:10;101549.63;;;19.18;40.06
48200;BME280;33990;44.602;10.976;2023-02-04T09:22:38;101551.47;;;19.18;40.21
48200;BME280;33990;44.602;10.976;2023-02-04T09:25:05;101539.88;;;19.17;40.48
48200;BME280;33990;44.602;10.976;2023-02-04T09:27:33;101539.03;;;19.17;40.18
48200;BME280;33990;44.602;10.976;2023-02-04T09:30:00;101536.34;;;19.17;40.66
48200;BME280;33990;44.602;10.976;2023-02-04T09:32:28;101542.56;;;19.17;41.10
48200;BME280;33990;44.602;10.976;2023-02-04T09:34:55;101544.28;;;19.18;41.14
48200;BME280;33990;44.602;10.976;2023-02-04T09:37:22;101540.75;;;19.18;40.94
48200;BME280;33990;44.602;10.976;2023-02-04T09:39:51;101542.56;;;19.17;41.09
48200;BME280;33990;44.602;10.976;2023-02-04T09:42:18;101520.13;;;19.18;41.16
48200;BME280;33990;44.602;10.976;2023-02-04T09:44:48;101521.09;;;19.17;41.13
48200;BME280;33990;44.602;10.976;2023-02-04T09:47:18;101529.03;;;19.19;41.33
48200;BME280;33990;44.602;10.976;2023-02-04T09:49:47;101523.78;;;19.17;41.25
48200;BME280;33990;44.602;10.976;2023-02-04T09:52:16;101533.53;;;19.18;41.21
48200;BME280;33990;44.602;10.976;2023-02-04T09:54:44;101526.47;;;19.17;41.14
48200;BME280;33990;44.602;10.976;2023-02-04T09:57:18;101538.06;;;19.18;41.10
48200;BME280;33990;44.602;10.976;2023-02-04T09:59:45;101553.31;;;19.17;41.12
48200;BME280;33990;44.602;10.976;2023-02-04T10:02:33;101550.63;;;19.17;41.20
48200;BME280;33990;44.602;10.976;2023-02-04T10:05:01;101553.19;;;19.19;41.00
48200;BME280;33990;44.602;10.976;2023-02-04T10:07:28;101549.63;;;19.18;41.23
48200;BME280;33990;44.602;10.976;2023-02-04T10:09:58;101544.28;;;19.18;41.32
48200;BME280;33990;44.602;10.976;2023-02-04T10:12:25;101536.22;;;19.18;41.29
48200;BME280;33990;44.602;10.976;2023-02-04T10:14:53;101542.44;;;19.19;41.25
48200;BME280;33990;44.602;10.976;2023-02-04T10:17:21;101538.78;;;19.20;41.33
48200;BME280;33990;44.602;10.976;2023-02-04T10:19:49;101540.63;;;19.19;41.29
48200;BME280;33990;44.602;10.976;2023-02-04T10:22:20;101533.53;;;19.18;41.25
48200;BME280;33990;44.602;10.976;2023-02-04T10:24:48;101540.63;;;19.19;41.29
48200;BME280;33990;44.602;10.976;2023-02-04T10:27:15;101542.34;;;19.20;41.09
48200;BME280;33990;44.602;10.976;2023-02-04T10:29:56;101526.25;;;19.20;41.09
48200;BME280;33990;44.602;10.976;2023-02-04T10:32:30;101521.81;;;19.19;41.25
48200;BME280;33990;44.602;10.976;2023-02-04T10:35:00;101517.31;;;19.20;41.27
48200;BME280;33990;44.602;10.976;2023-02-04T10:37:28;101522.69;;;19.20;41.35
48200;BME280;33990;44.602;10.976;2023-02-04T10:39:56;101521.81;;;19.19;41.36
48200;BME280;33990;44.602;10.976;2023-02-04T10:42:26;101523.56;;;19.20;41.19
48200;BME280;33990;44.602;10.976;2023-02-04T10:44:54;101531.63;;;19.20;41.31
48200;BME280;33990;44.602;10.976;2023-02-04T10:47:27;101520.97;;;19.19;41.71
48200;BME280;33990;44.602;10.976;2023-02-04T10:50:14;101520.88;;;19.20;41.42
48200;BME280;33990;44.602;10.976;2023-02-04T10:52:55;101523.56;;;19.20;41.48
48200;BME280;33990;44.602;10.976;2023-02-04T10:55:44;101526.25;;;19.20;41.46
48200;BME280;33990;44.602;10.976;2023-02-04T10:58:16;101528.03;;;19.20;41.48
48200;BME280;33990;44.602;10.976;2023-02-04T11:00:44;101534.28;;;19.20;41.38
48200;BME280;33990;44.602;10.976;2023-02-04T11:03:21;101529.03;;;19.19;41.48
48200;BME280;33990;44.602;10.976;2023-02-04T11:05:50;101521.81;;;19.19;41.43
48200;BME280;33990;44.602;10.976;2023-02-04T11:08:33;101519.13;;;19.19;41.52
48200;BME280;33990;44.602;10.976;2023-02-04T11:11:15;101526.25;;;19.20;41.48
48200;BME280;33990;44.602;10.976;2023-02-04T11:18:50;101527.19;;;19.19;41.57
48200;BME280;33990;44.602;10.976;2023-02-04T11:26:34;101528.03;;;19.20;41.60
48200;BME280;33990;44.602;10.976;2023-02-04T11:39:30;101513.69;;;19.21;41.52
48200;BME280;33990;44.602;10.976;2023-02-04T11:41:59;101502.94;;;19.21;41.29
48200;BME280;33990;44.602;10.976;2023-02-04T11:44:27;101499.41;;;19.20;41.65
48200;BME280;33990;44.602;10.976;2023-02-04T11:46:55;101504.78;;;19.20;41.60
48200;BME280;33990;44.602;10.976;2023-02-04T11:49:24;101513.69;;;19.21;41.51
48200;BME280;33990;44.602;10.976;2023-02-04T11:52:12;101515.38;;;19.22;41.45
48200;BME280;33990;44.602;10.976;2023-02-04T11:54:40;101501.09;;;19.21;41.68
48200;BME280;33990;44.602;10.976;2023-02-04T11:57:10;101503.78;;;19.21;41.46
48200;BME280;33990;44.602;10.976;2023-02-04T11:59:37;101502.94;;;19.21;41.60
48200;BME280;33990;44.602;10.976;2023-02-04T12:02:25;101485.00;;;19.21;41.52
48200;BME280;33990;44.602;10.976;2023-02-04T12:05:12;101485.00;;;19.21;41.50
48200;BME280;33990;44.602;10.976;2023-02-04T12:07:39;101480.63;;;19.20;41.57
48200;BME280;33990;44.602;10.976;2023-02-04T12:10:18;101477.81;;;19.22;41.67
48200;BME280;33990;44.602;10.976;2023-02-04T12:12:51;101476.09;;;19.21;41.42
48200;BME280;33990;44.602;10.976;2023-02-04T12:15:23;101472.44;;;19.22;41.42
48200;BME280;33990;44.602;10.976;2023-02-04T12:18:05;101474.25;;;19.21;41.52
48200;BME280;33990;44.602;10.976;2023-02-04T12:20:38;101471.59;;;19.21;41.54
48200;BME280;33990;44.602;10.976;2023-02-04T12:23:06;101472.44;;;19.22;41.57
48200;BME280;33990;44.602;10.976;2023-02-04T12:25:34;101465.34;;;19.21;41.65
48200;BME280;33990;44.602;10.976;2023-02-04T12:28:01;101463.53;;;19.21;41.67
48200;BME280;33990;44.602;10.976;2023-02-04T12:30:29;101459.13;;;19.20;41.49
48200;BME280;33990;44.602;10.976;2023-02-04T12:32:56;101458.25;;;19.20;41.53
48200;BME280;33990;44.602;10.976;2023-02-04T12:35:23;101467.06;;;19.22;41.46
48200;BME280;33990;44.602;10.976;2023-02-04T12:37:51;101459.13;;;19.20;41.45
48200;BME280;33990;44.602;10.976;2023-02-04T12:40:19;101456.44;;;19.20;41.54
48200;BME280;33990;44.602;10.976;2023-02-04T12:42:48;101469.00;;;19.20;41.60
48200;BME280;33990;44.602;10.976;2023-02-04T12:45:16;101476.94;;;19.21;41.31
48200;BME280;33990;44.602;10.976;2023-02-04T12:47:44;101469.88;;;19.20;41.25
48200;BME280;33990;44.602;10.976;2023-02-04T12:50:14;101469.00;;;19.20;41.15
48200;BME280;33990;44.602;10.976;2023-02-04T12:52:41;101466.31;;;19.20;41.39
48200;BME280;33990;44.602;10.976;2023-02-04T12:55:08;101465.34;;;19.21;41.45
48200;BME280;33990;44.602;10.976;2023-02-04T12:57:36;101464.50;;;19.20;41.30
48200;BME280;33990;44.602;10.976;2023-02-04T13:00:03;101466.22;;;19.21;41.31
48200;BME280;33990;44.602;10.976;2023-02-04T13:02:31;101457.31;;;19.21;41.42
48200;BME280;33990;44.602;10.976;2023-02-04T13:04:58;101466.22;;;19.21;41.31
48200;BME280;33990;44.602;10.976;2023-02-04T13:07:25;101454.63;;;19.21;41.39
48200;BME280;33990;44.602;10.976;2023-02-04T13:09:52;101456.31;;;19.22;41.10